createdAt,value
2019-02-03T00:00:08.996Z,60.10
2019-02-03T00:02:37.782Z,62.73
2019-02-03T00:05:08.221Z,61.10
2019-02-03T00:07:36.611Z,58.03
2019-02-03T00:10:08.180Z,61.20
2019-02-03T00:12:36.586Z,61.67
2019-02-03T00:15:08.037Z,58.40
2019-02-03T00:17:36.764Z,57.70
2019-02-03T00:20:08.528Z,59.27
2019-02-03T00:22:37.445Z,58.53
2019-02-03T00:25:08.960Z,57.33
2019-02-03T00:27:37.347Z,59.60
2019-02-03T00:30:09.030Z,57.40
2019-02-03T00:32:37.418Z,56.43
2019-02-03T00:35:06.946Z,58.87
2019-02-03T00:37:35.926Z,56.80
2019-02-03T00:40:07.212Z,56.67
2019-02-03T00:42:35.821Z,53.87
2019-02-03T00:45:06.506Z,55.80
2019-02-03T00:47:35.138Z,57.30
2019-02-03T00:50:05.957Z,55.03
2019-02-03T00:52:35.000Z,55.60
2019-02-03T00:55:03.393Z,59.70
2019-02-03T00:57:32.391Z,57.80
2019-02-03T01:00:01.320Z,59.13
2019-02-03T01:02:30.086Z,54.47
2019-02-03T01:04:58.487Z,57.33
2019-02-03T01:07:27.904Z,56.00
2019-02-03T01:09:56.572Z,54.53
2019-02-03T01:12:25.291Z,60.83
2019-02-03T01:14:53.648Z,55.60
2019-02-03T01:17:22.639Z,57.30
2019-02-03T01:19:51.326Z,56.27
2019-02-03T01:22:19.732Z,55.77
2019-02-03T01:24:48.595Z,56.73
2019-02-03T01:27:17.276Z,56.30
2019-02-03T01:29:45.993Z,54.30
2019-02-03T01:32:14.661Z,53.97
2019-02-03T01:34:43.114Z,53.07
2019-02-03T01:37:11.923Z,53.03
2019-02-03T01:39:40.606Z,52.13
2019-02-03T01:42:09.399Z,50.67
2019-02-03T01:44:37.787Z,49.90
2019-02-03T01:47:06.463Z,50.33
2019-02-03T01:49:34.843Z,49.53
2019-02-03T01:52:03.318Z,49.27
2019-02-03T01:54:31.718Z,50.40
2019-02-03T01:57:00.389Z,48.60
2019-02-03T01:59:29.264Z,51.50
2019-02-03T02:01:57.656Z,54.67
2019-02-03T02:04:26.053Z,50.80
2019-02-03T02:06:54.454Z,55.10
2019-02-03T02:09:23.101Z,54.00
2019-02-03T02:11:51.492Z,56.13
2019-02-03T02:14:20.274Z,56.03
2019-02-03T02:16:49.005Z,55.63
2019-02-03T02:19:17.398Z,53.90
2019-02-03T02:21:45.808Z,55.10
2019-02-03T02:24:14.218Z,57.63
2019-02-03T02:26:42.707Z,58.10
2019-02-03T02:29:11.571Z,56.50
2019-02-03T02:31:39.978Z,56.90
2019-02-03T02:34:08.391Z,56.77
2019-02-03T02:36:36.779Z,59.07
2019-02-03T02:39:07.227Z,58.57
2019-02-03T02:41:35.908Z,62.53
2019-02-03T02:44:04.728Z,58.87
2019-02-03T02:46:33.134Z,63.40
2019-02-03T02:49:01.521Z,61.00
2019-02-03T02:51:29.911Z,63.17
2019-02-03T02:53:58.993Z,64.20
2019-02-03T02:56:27.822Z,64.67
2019-02-03T02:58:56.484Z,63.70
2019-02-03T03:01:25.310Z,65.60
2019-02-03T03:03:53.807Z,61.73
2019-02-03T03:06:22.270Z,66.53
2019-02-03T03:08:50.962Z,64.40
2019-02-03T03:11:19.476Z,63.67
2019-02-03T03:13:48.174Z,61.57
2019-02-03T03:16:16.578Z,62.03
2019-02-03T03:18:45.084Z,64.27
2019-02-03T03:21:13.775Z,61.80
2019-02-03T03:23:42.163Z,59.77
2019-02-03T03:26:10.837Z,60.60
2019-02-03T03:28:39.226Z,57.57
2019-02-03T03:31:07.643Z,59.57
2019-02-03T03:33:36.035Z,57.63
2019-02-03T03:36:05.577Z,59.87
2019-02-03T03:38:33.962Z,61.70
2019-02-03T03:41:02.474Z,61.13
2019-02-03T03:43:30.866Z,60.10
2019-02-03T03:45:59.257Z,61.30
2019-02-03T03:48:27.747Z,61.63
2019-02-03T03:50:56.193Z,62.03
2019-02-03T03:53:25.061Z,57.90
2019-02-03T03:55:53.695Z,63.33
2019-02-03T03:58:22.089Z,63.17
2019-02-03T04:00:50.476Z,62.93
2019-02-03T04:03:19.186Z,66.80
2019-02-03T04:05:47.970Z,64.43
2019-02-03T04:08:16.382Z,63.17
2019-02-03T04:10:44.858Z,64.90
2019-02-03T04:13:13.341Z,66.73
2019-02-03T04:15:42.000Z,70.60
2019-02-03T04:18:10.403Z,64.30
2019-02-03T04:20:38.947Z,66.20
2019-02-03T04:23:07.336Z,65.90
2019-02-03T04:25:35.740Z,64.40
2019-02-03T04:28:04.816Z,66.10
2019-02-03T04:30:33.215Z,66.10
2019-02-03T04:33:01.622Z,67.80
2019-02-03T04:35:30.014Z,66.00
2019-02-03T04:37:58.403Z,67.00
2019-02-03T04:40:27.124Z,64.90
2019-02-03T04:42:55.511Z,64.00
2019-02-03T04:45:24.062Z,69.70
2019-02-03T04:47:52.776Z,67.30
2019-02-03T04:50:22.146Z,65.13
2019-02-03T04:52:50.599Z,68.53
2019-02-03T04:55:21.278Z,64.80
2019-02-03T04:57:49.732Z,63.57
2019-02-03T05:00:23.417Z,66.40
2019-02-03T05:02:52.209Z,62.63
2019-02-03T05:05:20.985Z,69.00
2019-02-03T05:07:49.425Z,69.13
2019-02-03T05:10:18.558Z,66.27
2019-02-03T05:12:47.162Z,68.30
2019-02-03T05:15:17.590Z,68.77
2019-02-03T05:17:45.997Z,66.00
2019-02-03T05:20:17.278Z,67.63
2019-02-03T05:22:45.943Z,69.90
2019-02-03T05:25:14.902Z,66.67
2019-02-03T05:27:43.531Z,67.43
2019-02-03T05:30:26.650Z,71.00
2019-02-03T05:32:55.539Z,69.30
2019-02-03T05:35:23.923Z,71.87
2019-02-03T05:37:52.424Z,71.37
2019-02-03T05:40:20.911Z,71.40
2019-02-03T05:42:49.302Z,75.00
2019-02-03T05:45:20.343Z,69.50
2019-02-03T05:47:50.217Z,71.17
2019-02-03T05:50:21.532Z,70.17
2019-02-03T05:52:50.279Z,65.47
2019-02-03T05:55:19.839Z,59.57
2019-02-03T05:57:48.327Z,66.80
2019-02-03T06:00:21.391Z,64.73
2019-02-03T06:02:49.891Z,65.60
2019-02-03T06:05:18.552Z,68.27
2019-02-03T06:07:46.948Z,67.13
2019-02-03T06:10:19.372Z,64.13
2019-02-03T06:12:48.029Z,63.70
2019-02-03T06:15:17.252Z,70.53
2019-02-03T06:17:45.642Z,63.97
2019-02-03T06:20:20.057Z,67.47
2019-02-03T06:22:48.930Z,63.60
2019-02-03T06:25:17.585Z,64.60
2019-02-03T06:27:46.328Z,65.53
2019-02-03T06:30:23.440Z,67.50
2019-02-03T06:32:51.847Z,67.80
2019-02-03T06:35:20.323Z,68.23
2019-02-03T06:37:48.782Z,66.67
2019-02-03T06:40:17.342Z,68.07
2019-02-03T06:42:46.304Z,67.50
2019-02-03T06:45:19.396Z,69.37
2019-02-03T06:47:47.789Z,67.93
2019-02-03T06:50:16.450Z,68.97
2019-02-03T06:52:44.844Z,63.67
2019-02-03T06:55:13.532Z,67.30
2019-02-03T06:57:41.972Z,64.97
2019-02-03T07:00:13.124Z,63.90
2019-02-03T07:02:41.546Z,63.50
2019-02-03T07:05:10.704Z,67.37
2019-02-03T07:07:39.099Z,68.33
2019-02-03T07:10:10.389Z,68.80
2019-02-03T07:12:38.806Z,66.63
2019-02-03T07:15:09.638Z,68.07
2019-02-03T07:17:38.351Z,61.90
2019-02-03T07:20:14.871Z,64.17
2019-02-03T07:22:43.278Z,64.10
2019-02-03T07:25:11.851Z,63.37
2019-02-03T07:27:40.250Z,64.20
2019-02-03T07:30:17.007Z,62.20
2019-02-03T07:32:45.380Z,58.27
2019-02-03T07:35:13.845Z,59.73
2019-02-03T07:37:42.231Z,59.60
2019-02-03T07:40:16.425Z,57.27
2019-02-03T07:42:44.882Z,55.87
2019-02-03T07:45:13.665Z,59.30
2019-02-03T07:47:42.653Z,55.30
2019-02-03T07:50:13.698Z,54.73
2019-02-03T07:52:42.159Z,54.33
2019-02-03T07:55:12.916Z,52.90
2019-02-03T07:57:41.620Z,50.80
2019-02-03T08:00:15.338Z,53.07
2019-02-03T08:02:43.731Z,54.00
2019-02-03T08:05:12.694Z,51.97
2019-02-03T08:07:41.081Z,47.50
2019-02-03T08:10:23.886Z,50.67
2019-02-03T08:12:42.623Z,47.73
2019-02-03T08:15:19.103Z,47.50
2019-02-03T08:17:47.847Z,46.87
2019-02-03T08:20:19.019Z,48.60
2019-02-03T08:22:47.563Z,46.27
2019-02-03T08:25:17.195Z,46.70
2019-02-03T08:27:45.861Z,45.93
2019-02-03T08:30:23.899Z,44.83
2019-02-03T08:32:52.292Z,44.13
2019-02-03T08:35:20.838Z,40.90
2019-02-03T08:37:49.246Z,41.33
2019-02-03T08:40:22.501Z,39.23
2019-02-03T08:42:50.891Z,41.30
2019-02-03T08:45:21.339Z,41.03
2019-02-03T08:47:49.737Z,39.20
2019-02-03T08:50:25.329Z,38.17
2019-02-03T08:52:54.062Z,35.50
2019-02-03T08:55:22.564Z,35.37
2019-02-03T08:57:51.068Z,33.50
2019-02-03T09:00:33.849Z,36.27
2019-02-03T09:03:02.236Z,39.17
2019-02-03T09:05:31.042Z,38.17
2019-02-03T09:08:00.412Z,39.33
2019-02-03T09:10:28.793Z,37.33
2019-02-03T09:12:57.188Z,32.43
2019-02-03T09:15:27.339Z,32.50
2019-02-03T09:17:55.721Z,29.83
2019-02-03T09:20:29.810Z,29.50
2019-02-03T09:22:58.610Z,27.07
2019-02-03T09:25:27.094Z,26.50
2019-02-03T09:27:55.747Z,28.73
2019-02-03T09:30:29.040Z,26.27
2019-02-03T09:33:00.569Z,24.40
2019-02-03T09:35:29.379Z,26.40
2019-02-03T09:37:58.804Z,25.20
2019-02-03T09:40:29.843Z,26.30
2019-02-03T09:42:58.333Z,24.40
2019-02-03T09:45:30.579Z,24.17
2019-02-03T09:47:58.960Z,25.23
2019-02-03T09:50:32.338Z,24.70
2019-02-03T09:53:04.184Z,24.93
2019-02-03T09:55:32.581Z,24.63
2019-02-03T09:58:01.934Z,25.07
2019-02-03T10:00:35.700Z,24.77
2019-02-03T10:03:06.043Z,24.47
2019-02-03T10:05:37.068Z,24.50
2019-02-03T10:08:05.946Z,24.20
2019-02-03T10:10:36.648Z,23.70
2019-02-03T10:13:05.712Z,22.50
2019-02-03T10:15:34.193Z,22.63
2019-02-03T10:18:02.802Z,22.07
2019-02-03T10:20:31.209Z,23.47
2019-02-03T10:22:59.587Z,24.80
2019-02-03T10:25:30.199Z,22.67
2019-02-03T10:27:58.908Z,23.70
2019-02-03T10:30:27.775Z,24.43
2019-02-03T10:32:57.477Z,24.00
2019-02-03T10:35:30.645Z,24.23
2019-02-03T10:37:59.332Z,22.03
2019-02-03T10:40:30.082Z,25.50
2019-02-03T10:42:59.927Z,25.10
2019-02-03T10:45:28.545Z,22.70
2019-02-03T10:47:57.002Z,22.87
2019-02-03T10:50:28.701Z,23.37
2019-02-03T10:52:57.226Z,22.37
2019-02-03T10:55:26.246Z,23.53
2019-02-03T10:57:54.812Z,22.23
2019-02-03T11:00:31.777Z,20.73
2019-02-03T11:03:00.709Z,21.43
2019-02-03T11:05:35.519Z,19.33
2019-02-03T11:08:04.172Z,19.83
2019-02-03T11:10:32.583Z,19.50
2019-02-03T11:13:01.502Z,18.93
2019-02-03T11:15:30.607Z,19.17
2019-02-03T11:17:59.298Z,18.57
2019-02-03T11:20:34.481Z,16.17
2019-02-03T11:23:06.640Z,16.80
2019-02-03T11:25:42.504Z,18.20
2019-02-03T11:28:09.705Z,16.87
2019-02-03T11:30:39.442Z,16.30
2019-02-03T11:33:09.692Z,16.73
2019-02-03T11:35:38.770Z,16.10
2019-02-03T11:38:07.412Z,16.53
2019-02-03T11:40:37.969Z,17.07
2019-02-03T11:43:07.713Z,15.83
2019-02-03T11:45:41.237Z,15.10
2019-02-03T11:48:15.075Z,15.83
2019-02-03T11:50:45.018Z,17.13
2019-02-03T11:53:16.087Z,15.20
2019-02-03T11:55:44.485Z,14.20
2019-02-03T11:58:13.256Z,13.40
2019-02-03T12:00:41.972Z,14.37
2019-02-03T12:03:11.280Z,13.20
2019-02-03T12:05:39.814Z,14.40
2019-02-03T12:08:09.355Z,14.30
2019-02-03T12:10:38.249Z,14.80
2019-02-03T12:13:07.675Z,13.30
2019-02-03T12:15:36.837Z,12.40
2019-02-03T12:18:06.841Z,12.80
2019-02-03T12:20:35.755Z,13.17
2019-02-03T12:23:04.919Z,13.37
2019-02-03T12:25:36.188Z,13.20
2019-02-03T12:28:06.254Z,13.70
2019-02-03T12:30:35.478Z,11.67
2019-02-03T12:33:05.399Z,11.17
2019-02-03T12:35:34.232Z,11.07
2019-02-03T12:38:02.695Z,11.23
2019-02-03T12:40:33.677Z,10.60
2019-02-03T12:43:02.262Z,11.77
2019-02-03T12:45:30.842Z,11.30
2019-02-03T12:47:59.503Z,10.40
2019-02-03T12:50:28.398Z,10.87
2019-02-03T12:52:57.075Z,11.27
2019-02-03T12:55:31.738Z,11.40
2019-02-03T12:58:01.222Z,10.77
2019-02-03T13:00:37.308Z,11.13
2019-02-03T13:03:07.631Z,11.50
2019-02-03T13:05:36.416Z,10.70
2019-02-03T13:08:06.293Z,10.70
2019-02-03T13:10:36.719Z,10.70
2019-02-03T13:13:06.570Z,10.83
2019-02-03T13:15:37.831Z,10.90
2019-02-03T13:18:07.589Z,12.43
2019-02-03T13:20:36.523Z,11.67
2019-02-03T13:23:05.888Z,11.47
2019-02-03T13:25:34.629Z,12.30
2019-02-03T13:28:03.376Z,10.90
2019-02-03T13:30:34.443Z,10.80
2019-02-03T13:33:02.832Z,10.83
2019-02-03T13:35:31.303Z,11.10
2019-02-03T13:37:59.962Z,11.47
2019-02-03T13:40:28.778Z,11.23
2019-02-03T13:42:57.178Z,11.70
2019-02-03T13:45:27.213Z,11.97
2019-02-03T13:47:58.424Z,10.33
2019-02-03T13:50:28.154Z,10.97
2019-02-03T13:52:57.451Z,11.00
2019-02-03T13:55:26.962Z,10.57
2019-02-03T13:57:56.018Z,11.90
2019-02-03T14:00:27.400Z,11.50
2019-02-03T14:02:56.141Z,11.10
2019-02-03T14:05:24.669Z,11.07
2019-02-03T14:07:53.626Z,11.03
2019-02-03T14:10:28.021Z,13.43
2019-02-03T14:12:57.264Z,10.37
2019-02-03T14:15:26.285Z,12.77
2019-02-03T14:17:54.989Z,10.60
2019-02-03T14:20:28.483Z,11.70
2019-02-03T14:22:57.624Z,10.30
2019-02-03T14:25:26.804Z,10.90
2019-02-03T14:27:55.466Z,11.60
2019-02-03T14:30:40.049Z,12.13
2019-02-03T14:33:00.000Z,10.50
2019-02-03T14:35:28.737Z,10.90
2019-02-03T14:37:57.188Z,10.40
2019-02-03T14:40:26.130Z,10.73
2019-02-03T14:43:01.905Z,10.97
2019-02-03T14:45:27.629Z,11.00
2019-02-03T14:47:56.121Z,11.20
2019-02-03T14:50:26.277Z,10.70
2019-02-03T14:52:57.418Z,10.67
2019-02-03T14:55:28.952Z,10.73
2019-02-03T14:57:57.807Z,11.17
2019-02-03T15:00:38.080Z,11.17
2019-02-03T15:03:09.382Z,11.77
2019-02-03T15:05:38.004Z,14.10
2019-02-03T15:08:07.490Z,12.87
2019-02-03T15:10:36.237Z,13.43
2019-02-03T15:13:13.076Z,13.47
2019-02-03T15:15:36.513Z,14.30
2019-02-03T15:18:05.463Z,13.27
2019-02-03T15:20:33.934Z,13.17
2019-02-03T15:23:02.393Z,14.20
2019-02-03T15:25:30.971Z,13.27
2019-02-03T15:27:59.611Z,13.60
2019-02-03T15:30:37.295Z,12.80
2019-02-03T15:33:06.045Z,13.33
2019-02-03T15:35:34.501Z,12.87
2019-02-03T15:38:03.293Z,13.60
2019-02-03T15:40:31.711Z,13.67
2019-02-03T15:43:00.479Z,13.27
2019-02-03T15:45:29.154Z,13.90
2019-02-03T15:47:57.549Z,13.30
2019-02-03T15:50:30.847Z,13.17
2019-02-03T15:53:00.428Z,14.37
2019-02-03T15:55:32.054Z,13.60
2019-02-03T15:58:00.854Z,13.00
2019-02-03T16:00:34.755Z,14.47
2019-02-03T16:03:03.325Z,13.17
2019-02-03T16:05:31.845Z,13.40
2019-02-03T16:08:00.442Z,13.97
2019-02-03T16:10:29.297Z,14.03
2019-02-03T16:12:57.695Z,13.47
2019-02-03T16:15:26.188Z,13.33
2019-02-03T16:17:54.644Z,13.33
2019-02-03T16:20:28.609Z,13.13
2019-02-03T16:22:55.552Z,13.73
2019-02-03T16:25:23.937Z,13.90
2019-02-03T16:27:52.384Z,12.87
2019-02-03T16:30:33.207Z,13.07
2019-02-03T16:33:02.050Z,13.07
2019-02-03T16:35:30.727Z,13.37
2019-02-03T16:37:59.356Z,12.40
2019-02-03T16:40:30.083Z,12.50
2019-02-03T16:42:58.552Z,12.00
2019-02-03T16:45:27.076Z,12.20
2019-02-03T16:47:56.024Z,12.60
2019-02-03T16:50:27.074Z,15.60
2019-02-03T16:52:56.166Z,15.43
2019-02-03T16:55:24.629Z,16.00
2019-02-03T16:57:53.152Z,14.00
2019-02-03T17:00:27.199Z,13.00
2019-02-03T17:02:56.028Z,15.10
2019-02-03T17:05:30.283Z,13.07
2019-02-03T17:08:01.264Z,15.30
2019-02-03T17:10:30.019Z,15.30
2019-02-03T17:12:59.746Z,16.60
2019-02-03T17:15:30.614Z,14.67
2019-02-03T17:17:59.631Z,14.90
2019-02-03T17:20:28.383Z,12.80
2019-02-03T17:22:56.961Z,13.90
2019-02-03T17:25:37.767Z,12.43
2019-02-03T17:28:06.694Z,12.50
2019-02-03T17:30:35.537Z,11.60
2019-02-03T17:33:04.787Z,12.73
2019-02-03T17:35:35.603Z,12.60
2019-02-03T17:38:04.496Z,11.97
2019-02-03T17:40:32.986Z,13.00
2019-02-03T17:43:01.435Z,14.03
2019-02-03T17:45:29.951Z,12.40
2019-02-03T17:47:58.343Z,12.80
2019-02-03T17:50:29.566Z,13.70
2019-02-03T17:52:58.205Z,13.50
2019-02-03T17:55:29.292Z,13.77
2019-02-03T17:57:58.148Z,14.13
2019-02-03T18:00:38.820Z,15.30
2019-02-03T18:03:07.781Z,14.13
2019-02-03T18:05:36.169Z,13.40
2019-02-03T18:08:06.968Z,14.80
2019-02-03T18:10:35.750Z,12.70
2019-02-03T18:13:04.774Z,13.00
2019-02-03T18:15:33.168Z,14.47
2019-02-03T18:18:01.558Z,13.60
2019-02-03T18:20:30.702Z,14.77
2019-02-03T18:22:59.079Z,14.67
2019-02-03T18:25:27.785Z,16.07
2019-02-03T18:27:56.491Z,16.37
2019-02-03T18:30:26.995Z,16.60
2019-02-03T18:32:57.300Z,17.13
2019-02-03T18:35:25.761Z,16.47
2019-02-03T18:37:57.096Z,16.70
2019-02-03T18:40:25.497Z,16.67
2019-02-03T18:42:54.053Z,16.90
2019-02-03T18:45:24.788Z,17.23
2019-02-03T18:47:53.291Z,16.13
2019-02-03T18:50:23.147Z,17.80
2019-02-03T18:52:52.234Z,17.80
2019-02-03T18:55:23.842Z,17.93
2019-02-03T18:57:52.227Z,19.00
2019-02-03T19:00:29.526Z,19.13
2019-02-03T19:02:58.147Z,19.13
2019-02-03T19:05:29.244Z,19.13
2019-02-03T19:07:57.704Z,19.00
2019-02-03T19:10:27.227Z,17.03
2019-02-03T19:12:55.769Z,17.23
2019-02-03T19:15:27.007Z,17.20
2019-02-03T19:17:55.676Z,18.00
2019-02-03T19:20:27.152Z,20.27
2019-02-03T19:22:55.719Z,18.47
2019-02-03T19:25:24.638Z,17.73
2019-02-03T19:27:53.171Z,18.33
2019-02-03T19:30:23.596Z,19.43
2019-02-03T19:32:52.784Z,19.33
2019-02-03T19:35:26.850Z,18.80
2019-02-03T19:37:55.238Z,19.40
2019-02-03T19:40:29.225Z,19.67
2019-02-03T19:42:57.761Z,19.70
2019-02-03T19:45:31.118Z,19.67
2019-02-03T19:47:59.700Z,19.70
2019-02-03T19:50:34.302Z,19.37
2019-02-03T19:53:02.994Z,18.73
2019-02-03T19:55:31.545Z,19.63
2019-02-03T19:58:00.601Z,18.83
2019-02-03T20:00:34.657Z,20.70
2019-02-03T20:03:03.592Z,19.67
2019-02-03T20:05:32.057Z,19.50
2019-02-03T20:08:00.506Z,19.83
2019-02-03T20:10:30.650Z,18.23
2019-02-03T20:13:01.674Z,18.70
2019-02-03T20:15:29.681Z,19.73
2019-02-03T20:17:58.271Z,18.23
2019-02-03T20:20:35.735Z,18.60
2019-02-03T20:23:06.624Z,18.33
2019-02-03T20:25:35.171Z,19.20
2019-02-03T20:28:04.376Z,18.60
2019-02-03T20:30:38.520Z,18.40
2019-02-03T20:33:03.188Z,17.50
2019-02-03T20:35:31.665Z,18.57
2019-02-03T20:38:00.749Z,20.57
2019-02-03T20:40:34.738Z,18.60
2019-02-03T20:43:03.326Z,20.20
2019-02-03T20:45:32.124Z,20.30
2019-02-03T20:48:00.646Z,19.40
2019-02-03T20:50:29.041Z,19.20
2019-02-03T20:52:59.659Z,20.33
2019-02-03T20:55:28.192Z,20.00
2019-02-03T20:57:56.683Z,19.97
2019-02-03T21:00:36.763Z,19.63
2019-02-03T21:03:06.557Z,19.93
2019-02-03T21:05:35.657Z,17.80
2019-02-03T21:08:04.656Z,18.77
2019-02-03T21:10:33.075Z,18.23
2019-02-03T21:13:10.792Z,20.10
2019-02-03T21:15:33.951Z,18.00
2019-02-03T21:18:01.831Z,19.10
2019-02-03T21:20:32.991Z,19.07
2019-02-03T21:23:01.546Z,17.87
2019-02-03T21:25:30.041Z,20.93
2019-02-03T21:27:58.518Z,20.97
2019-02-03T21:30:37.992Z,20.03
2019-02-03T21:33:06.622Z,19.03
2019-02-03T21:35:35.466Z,19.50
2019-02-03T21:38:04.522Z,19.00
2019-02-03T21:40:33.236Z,20.93
2019-02-03T21:43:01.641Z,21.80
2019-02-03T21:45:30.394Z,21.47
2019-02-03T21:47:59.082Z,23.30
2019-02-03T21:50:29.939Z,20.33
2019-02-03T21:52:58.577Z,21.77
2019-02-03T21:55:27.549Z,22.93
2019-02-03T21:57:56.215Z,21.30
2019-02-03T22:00:28.284Z,22.20
2019-02-03T22:02:56.667Z,20.60
2019-02-03T22:05:25.511Z,20.40
2019-02-03T22:07:53.956Z,21.17
2019-02-03T22:10:25.448Z,20.93
2019-02-03T22:12:54.243Z,22.10
2019-02-03T22:15:22.997Z,21.20
2019-02-03T22:17:52.393Z,22.20
2019-02-03T22:20:23.065Z,21.70
2019-02-03T22:22:51.534Z,21.77
2019-02-03T22:25:19.994Z,22.57
2019-02-03T22:27:49.040Z,22.93
2019-02-03T22:30:20.073Z,22.97
2019-02-03T22:32:48.563Z,24.10
2019-02-03T22:35:17.230Z,22.93
2019-02-03T22:37:45.613Z,22.00
2019-02-03T22:40:16.685Z,21.57
2019-02-03T22:42:45.259Z,21.70
2019-02-03T22:45:22.520Z,22.83
2019-02-03T22:47:51.059Z,22.73
2019-02-03T22:50:24.131Z,23.23
2019-02-03T22:52:52.789Z,21.73
2019-02-03T22:55:21.374Z,22.07
2019-02-03T22:57:49.791Z,21.67
2019-02-03T23:00:31.845Z,22.67
2019-02-03T23:03:00.533Z,22.00
2019-02-03T23:05:29.537Z,21.20
2019-02-03T23:07:58.032Z,22.90
2019-02-03T23:10:26.499Z,21.50
2019-02-03T23:12:54.983Z,22.80
2019-02-03T23:15:23.385Z,22.70
2019-02-03T23:17:51.767Z,21.17
2019-02-03T23:20:20.716Z,19.93
2019-02-03T23:22:49.401Z,21.20
2019-02-03T23:25:18.097Z,21.00
2019-02-03T23:27:47.192Z,20.90
2019-02-03T23:30:17.404Z,21.53
2019-02-03T23:32:45.869Z,21.73
2019-02-03T23:35:14.719Z,21.33
2019-02-03T23:37:43.103Z,22.10
2019-02-03T23:40:14.373Z,24.00
2019-02-03T23:42:43.088Z,22.63
2019-02-03T23:45:13.603Z,22.53
2019-02-03T23:47:41.998Z,23.23
2019-02-03T23:50:14.067Z,23.10
2019-02-03T23:52:42.556Z,23.50
2019-02-03T23:55:11.338Z,22.97
2019-02-03T23:57:40.129Z,23.47
